sensor_id;sensor_type;location;lat;lon;timestamp;pressure;altitude;pressure_sealevel;temperature;humidity
82256;BME280;72145;34.434;-117.370;2023-08-30T00:00:07;89571.81;;;35.40;10.97
82256;BME280;72145;34.434;-117.370;2023-08-30T00:00:43;89535.78;;;34.80;10.86
82256;BME280;72145;34.434;-117.370;2023-08-30T00:01:18;89572.31;;;35.09;11.24
82256;BME280;72145;34.434;-117.370;2023-08-30T00:01:54;89567.63;;;35.10;11.17
82256;BME280;72145;34.434;-117.370;2023-08-30T00:02:29;89573.53;;;35.06;11.16
82256;BME280;72145;34.434;-117.370;2023-08-30T00:03:02;89573.13;;;35.12;12.41
82256;BME280;72145;34.434;-117.370;2023-08-30T00:03:49;89569.31;;;35.31;11.79
82256;BME280;72145;34.434;-117.370;2023-08-30T00:04:22;89573.75;;;35.24;11.93
82256;BME280;72145;34.434;-117.370;2023-08-30T00:04:59;89576.72;;;35.16;11.77
82256;BME280;72145;34.434;-117.370;2023-08-30T00:06:23;89566.63;;;34.89;11.65
82256;BME280;72145;34.434;-117.370;2023-08-30T00:07:13;89572.34;;;35.23;12.46
82256;BME280;72145;34.434;-117.370;2023-08-30T00:07:46;89551.78;;;35.18;12.64
82256;BME280;72145;34.434;-117.370;2023-08-30T00:08:19;89569.19;;;35.15;12.83
82256;BME280;72145;34.434;-117.370;2023-08-30T00:08:53;89567.22;;;35.01;12.24
82256;BME280;72145;34.434;-117.370;2023-08-30T00:09:26;89567.84;;;34.72;12.25
82256;BME280;72145;34.434;-117.370;2023-08-30T00:09:59;89576.56;;;34.71;12.03
82256;BME280;72145;34.434;-117.370;2023-08-30T00:10:33;89538.56;;;34.41;12.18
82256;BME280;72145;34.434;-117.370;2023-08-30T00:11:06;89563.84;;;34.73;12.27
82256;BME280;72145;34.434;-117.370;2023-08-30T00:11:39;89559.22;;;34.62;11.83
82256;BME280;72145;34.434;-117.370;2023-08-30T00:12:12;89483.31;;;34.16;12.28
82256;BME280;72145;34.434;-117.370;2023-08-30T00:12:45;89568.34;;;34.82;11.47
82256;BME280;72145;34.434;-117.370;2023-08-30T00:13:18;89567.13;;;34.85;11.98
82256;BME280;72145;34.434;-117.370;2023-08-30T00:13:53;89567.13;;;34.72;12.33
82256;BME280;72145;34.434;-117.370;2023-08-30T00:14:26;89572.25;;;34.79;12.32
82256;BME280;72145;34.434;-117.370;2023-08-30T00:14:59;89592.19;;;34.72;11.93
82256;BME280;72145;34.434;-117.370;2023-08-30T00:15:32;89453.56;;;33.88;11.97
82256;BME280;72145;34.434;-117.370;2023-08-30T00:16:08;89536.97;;;34.50;11.48
82256;BME280;72145;34.434;-117.370;2023-08-30T00:16:45;89571.31;;;34.61;11.91
82256;BME280;72145;34.434;-117.370;2023-08-30T00:17:18;89587.25;;;34.69;12.46
82256;BME280;72145;34.434;-117.370;2023-08-30T00:18:01;89573.00;;;34.68;12.79
82256;BME280;72145;34.434;-117.370;2023-08-30T00:18:43;89578.25;;;34.78;12.89
82256;BME280;72145;34.434;-117.370;2023-08-30T00:19:17;89549.81;;;34.63;12.55
82256;BME280;72145;34.434;-117.370;2023-08-30T00:19:51;89573.00;;;34.68;12.17
82256;BME280;72145;34.434;-117.370;2023-08-30T00:20:28;89571.44;;;34.63;12.11
82256;BME280;72145;34.434;-117.370;2023-08-30T00:21:01;89537.66;;;34.50;11.65
82256;BME280;72145;34.434;-117.370;2023-08-30T00:21:34;89566.53;;;34.73;11.82
82256;BME280;72145;34.434;-117.370;2023-08-30T00:22:07;89543.69;;;34.35;11.52
82256;BME280;72145;34.434;-117.370;2023-08-30T00:22:41;89571.22;;;34.59;12.34
82256;BME280;72145;34.434;-117.370;2023-08-30T00:23:14;89573.63;;;34.66;12.34
82256;BME280;72145;34.434;-117.370;2023-08-30T00:23:49;89525.16;;;34.57;13.25
82256;BME280;72145;34.434;-117.370;2023-08-30T00:24:22;89564.53;;;34.88;13.58
82256;BME280;72145;34.434;-117.370;2023-08-30T00:24:55;89564.16;;;34.79;13.44
82256;BME280;72145;34.434;-117.370;2023-08-30T00:25:31;89565.84;;;34.73;13.96
82256;BME280;72145;34.434;-117.370;2023-08-30T00:26:04;89565.75;;;34.71;14.03
82256;BME280;72145;34.434;-117.370;2023-08-30T00:26:37;89570.25;;;34.80;13.68
82256;BME280;72145;34.434;-117.370;2023-08-30T00:27:11;89581.47;;;34.74;13.63
82256;BME280;72145;34.434;-117.370;2023-08-30T00:27:44;89576.63;;;34.45;13.70
82256;BME280;72145;34.434;-117.370;2023-08-30T00:28:18;89562.00;;;34.50;13.70
82256;BME280;72145;34.434;-117.370;2023-08-30T00:28:51;89552.31;;;34.45;13.68
82256;BME280;72145;34.434;-117.370;2023-08-30T00:29:24;89573.41;;;34.35;13.72
82256;BME280;72145;34.434;-117.370;2023-08-30T00:29:57;89571.97;;;34.20;13.68
82256;BME280;72145;34.434;-117.370;2023-08-30T00:30:32;89577.09;;;34.02;13.62
82256;BME280;72145;34.434;-117.370;2023-08-30T00:31:07;89574.41;;;34.16;13.78
82256;BME280;72145;34.434;-117.370;2023-08-30T00:31:41;89575.53;;;34.11;14.25
82256;BME280;72145;34.434;-117.370;2023-08-30T00:32:14;89573.09;;;34.03;14.25
82256;BME280;72145;34.434;-117.370;2023-08-30T00:32:47;89578.09;;;34.34;15.01
82256;BME280;72145;34.434;-117.370;2023-08-30T00:33:20;89569.50;;;34.52;14.81
82256;BME280;72145;34.434;-117.370;2023-08-30T00:33:54;89524.59;;;34.05;14.35
82256;BME280;72145;34.434;-117.370;2023-08-30T00:34:27;89573.19;;;34.31;14.79
82256;BME280;72145;34.434;-117.370;2023-08-30T00:35:00;89556.59;;;34.50;15.39
82256;BME280;72145;34.434;-117.370;2023-08-30T00:35:33;89444.72;;;33.34;14.48
82256;BME280;72145;34.434;-117.370;2023-08-30T00:36:09;89556.81;;;33.75;14.60
82256;BME280;72145;34.434;-117.370;2023-08-30T00:36:42;89575.63;;;33.87;14.68
82256;BME280;72145;34.434;-117.370;2023-08-30T00:37:18;89567.78;;;33.91;14.83
82256;BME280;72145;34.434;-117.370;2023-08-30T00:37:52;89565.28;;;33.95;15.25
82256;BME280;72145;34.434;-117.370;2023-08-30T00:38:26;89562.81;;;33.74;14.75
82256;BME280;72145;34.434;-117.370;2023-08-30T00:39:00;89566.16;;;33.86;14.96
82256;BME280;72145;34.434;-117.370;2023-08-30T00:39:33;89567.91;;;34.07;15.05
82256;BME280;72145;34.434;-117.370;2023-08-30T00:40:10;89547.91;;;33.98;15.28
82256;BME280;72145;34.434;-117.370;2023-08-30T00:40:46;89574.03;;;33.82;15.34
82256;BME280;72145;34.434;-117.370;2023-08-30T00:41:20;89565.00;;;34.03;15.49
82256;BME280;72145;34.434;-117.370;2023-08-30T00:41:53;89564.06;;;34.24;15.59
82256;BME280;72145;34.434;-117.370;2023-08-30T00:42:27;89556.00;;;34.52;15.01
82256;BME280;72145;34.434;-117.370;2023-08-30T00:43:03;89572.09;;;34.50;14.96
82256;BME280;72145;34.434;-117.370;2023-08-30T00:43:36;89559.91;;;34.09;15.04
82256;BME280;72145;34.434;-117.370;2023-08-30T00:44:10;89548.66;;;33.87;15.33
82256;BME280;72145;34.434;-117.370;2023-08-30T00:44:43;89568.97;;;33.88;15.59
82256;BME280;72145;34.434;-117.370;2023-08-30T00:45:17;89561.94;;;33.83;15.73
82256;BME280;72145;34.434;-117.370;2023-08-30T00:45:50;89573.19;;;33.91;15.51
82256;BME280;72145;34.434;-117.370;2023-08-30T00:46:24;89551.25;;;33.85;15.61
82256;BME280;72145;34.434;-117.370;2023-08-30T00:46:58;89567.03;;;33.77;15.72
82256;BME280;72145;34.434;-117.370;2023-08-30T00:47:31;89555.16;;;33.82;15.95
82256;BME280;72145;34.434;-117.370;2023-08-30T00:48:06;89551.81;;;34.09;15.53
82256;BME280;72145;34.434;-117.370;2023-08-30T00:48:40;89566.13;;;34.12;15.67
82256;BME280;72145;34.434;-117.370;2023-08-30T00:49:15;89570.88;;;33.99;15.89
82256;BME280;72145;34.434;-117.370;2023-08-30T00:49:49;89557.19;;;33.95;15.53
82256;BME280;72145;34.434;-117.370;2023-08-30T00:50:23;89561.16;;;33.94;15.83
82256;BME280;72145;34.434;-117.370;2023-08-30T00:50:56;89572.81;;;33.71;15.34
82256;BME280;72145;34.434;-117.370;2023-08-30T00:51:30;89562.91;;;33.76;16.16
82256;BME280;72145;34.434;-117.370;2023-08-30T00:52:07;89544.91;;;33.66;16.13
82256;BME280;72145;34.434;-117.370;2023-08-30T00:52:42;89551.16;;;33.83;16.28
82256;BME280;72145;34.434;-117.370;2023-08-30T00:54:09;89564.31;;;33.77;15.78
82256;BME280;72145;34.434;-117.370;2023-08-30T00:54:42;89528.59;;;33.39;15.73
82256;BME280;72145;34.434;-117.370;2023-08-30T00:55:16;89560.13;;;33.62;16.24
82256;BME280;72145;34.434;-117.370;2023-08-30T00:55:49;89565.50;;;33.74;16.13
82256;BME280;72145;34.434;-117.370;2023-08-30T00:56:22;89562.16;;;33.87;16.53
82256;BME280;72145;34.434;-117.370;2023-08-30T00:56:56;89565.19;;;33.93;16.68
82256;BME280;72145;34.434;-117.370;2023-08-30T00:57:30;89578.78;;;33.69;16.95
82256;BME280;72145;34.434;-117.370;2023-08-30T00:58:04;89554.03;;;33.61;16.84
82256;BME280;72145;34.434;-117.370;2023-08-30T00:58:38;89572.81;;;33.59;16.61
82256;BME280;72145;34.434;-117.370;2023-08-30T00:59:11;89566.25;;;33.62;17.07
82256;BME280;72145;34.434;-117.370;2023-08-30T00:59:50;89562.78;;;33.48;17.19
82256;BME280;72145;34.434;-117.370;2023-08-30T01:00:24;89572.59;;;33.55;17.02
82256;BME280;72145;34.434;-117.370;2023-08-30T01:00:58;89553.00;;;33.66;17.10
82256;BME280;72145;34.434;-117.370;2023-08-30T01:01:32;89567.75;;;33.65;16.88
82256;BME280;72145;34.434;-117.370;2023-08-30T01:02:05;89562.63;;;33.58;17.02
82256;BME280;72145;34.434;-117.370;2023-08-30T01:02:39;89569.19;;;33.55;17.30
82256;BME280;72145;34.434;-117.370;2023-08-30T01:03:18;89575.50;;;33.71;17.43
82256;BME280;72145;34.434;-117.370;2023-08-30T01:03:53;89574.72;;;33.57;17.21
82256;BME280;72145;34.434;-117.370;2023-08-30T01:04:27;89567.94;;;33.44;17.46
82256;BME280;72145;34.434;-117.370;2023-08-30T01:05:01;89571.50;;;33.34;16.92
82256;BME280;72145;34.434;-117.370;2023-08-30T01:05:35;89559.81;;;33.30;17.31
82256;BME280;72145;34.434;-117.370;2023-08-30T01:06:08;89569.47;;;33.47;17.56
82256;BME280;72145;34.434;-117.370;2023-08-30T01:06:41;89548.69;;;33.12;17.54
82256;BME280;72145;34.434;-117.370;2023-08-30T01:07:15;89502.81;;;32.86;18.63
82256;BME280;72145;34.434;-117.370;2023-08-30T01:07:51;89577.97;;;33.29;18.16
82256;BME280;72145;34.434;-117.370;2023-08-30T01:08:27;89564.13;;;33.35;17.47
82256;BME280;72145;34.434;-117.370;2023-08-30T01:09:02;89529.94;;;33.02;17.71
82256;BME280;72145;34.434;-117.370;2023-08-30T01:09:38;89578.81;;;33.20;18.10
82256;BME280;72145;34.434;-117.370;2023-08-30T01:10:15;89561.94;;;33.20;17.66
82256;BME280;72145;34.434;-117.370;2023-08-30T01:10:52;89571.66;;;33.25;17.57
82256;BME280;72145;34.434;-117.370;2023-08-30T01:11:52;89568.91;;;33.37;17.53
82256;BME280;72145;34.434;-117.370;2023-08-30T01:12:39;89565.00;;;33.14;17.75
82256;BME280;72145;34.434;-117.370;2023-08-30T01:13:18;89568.38;;;33.14;18.59
82256;BME280;72145;34.434;-117.370;2023-08-30T01:14:04;89570.84;;;33.10;17.80
82256;BME280;72145;34.434;-117.370;2023-08-30T01:14:45;89573.91;;;33.05;18.24
82256;BME280;72145;34.434;-117.370;2023-08-30T01:15:24;89563.97;;;32.95;18.63
82256;BME280;72145;34.434;-117.370;2023-08-30T01:15:58;89558.34;;;32.91;18.38
82256;BME280;72145;34.434;-117.370;2023-08-30T01:16:37;89570.41;;;33.14;18.46
82256;BME280;72145;34.434;-117.370;2023-08-30T01:17:14;89532.69;;;32.90;17.84
82256;BME280;72145;34.434;-117.370;2023-08-30T01:17:52;89571.91;;;33.17;17.79
82256;BME280;72145;34.434;-117.370;2023-08-30T01:18:30;89570.00;;;33.31;17.75
82256;BME280;72145;34.434;-117.370;2023-08-30T01:20:05;89579.75;;;33.25;18.34
82256;BME280;72145;34.434;-117.370;2023-08-30T01:20:49;89569.75;;;33.27;18.35
82256;BME280;72145;34.434;-117.370;2023-08-30T01:23:58;89572.56;;;32.68;18.69
82256;BME280;72145;34.434;-117.370;2023-08-30T01:24:44;89555.44;;;32.64;18.60
82256;BME280;72145;34.434;-117.370;2023-08-30T01:27:36;89568.09;;;32.73;18.89
82256;BME280;72145;34.434;-117.370;2023-08-30T01:28:11;89576.28;;;32.75;19.19
82256;BME280;72145;34.434;-117.370;2023-08-30T01:28:46;89569.63;;;32.76;19.42
82256;BME280;72145;34.434;-117.370;2023-08-30T01:29:21;89577.22;;;32.68;19.20
82256;BME280;72145;34.434;-117.370;2023-08-30T01:29:57;89563.53;;;32.64;18.75
82256;BME280;72145;34.434;-117.370;2023-08-30T01:30:32;89521.38;;;32.33;19.26
82256;BME280;72145;34.434;-117.370;2023-08-30T01:31:10;89555.31;;;32.50;19.62
82256;BME280;72145;34.434;-117.370;2023-08-30T01:31:46;89574.31;;;32.64;19.93
82256;BME280;72145;34.434;-117.370;2023-08-30T01:32:21;89581.44;;;32.47;19.74
82256;BME280;72145;34.434;-117.370;2023-08-30T01:33:02;89575.69;;;32.41;19.73
82256;BME280;72145;34.434;-117.370;2023-08-30T01:33:40;89568.44;;;32.67;19.46
82256;BME280;72145;34.434;-117.370;2023-08-30T01:34:14;89539.84;;;32.27;19.89
82256;BME280;72145;34.434;-117.370;2023-08-30T01:34:49;89576.88;;;32.38;19.80
82256;BME280;72145;34.434;-117.370;2023-08-30T01:35:23;89577.34;;;32.34;19.58
82256;BME280;72145;34.434;-117.370;2023-08-30T01:36:01;89242.41;;;29.93;20.17
82256;BME280;72145;34.434;-117.370;2023-08-30T01:36:38;89571.81;;;32.44;19.57
82256;BME280;72145;34.434;-117.370;2023-08-30T01:37:12;89574.41;;;32.42;19.67
82256;BME280;72145;34.434;-117.370;2023-08-30T01:37:47;89569.25;;;32.46;19.99
82256;BME280;72145;34.434;-117.370;2023-08-30T01:38:21;89536.00;;;32.18;19.90
82256;BME280;72145;34.434;-117.370;2023-08-30T01:39:48;89569.94;;;32.35;19.52
82256;BME280;72145;34.434;-117.370;2023-08-30T01:40:22;89575.09;;;32.31;19.76
82256;BME280;72145;34.434;-117.370;2023-08-30T01:40:58;89574.03;;;32.24;20.23
82256;BME280;72145;34.434;-117.370;2023-08-30T01:41:35;89558.00;;;32.14;19.76
82256;BME280;72145;34.434;-117.370;2023-08-30T01:42:12;89580.25;;;32.27;19.99
82256;BME280;72145;34.434;-117.370;2023-08-30T01:42:47;89570.78;;;32.26;20.38
82256;BME280;72145;34.434;-117.370;2023-08-30T01:43:22;89576.97;;;32.28;20.05
82256;BME280;72145;34.434;-117.370;2023-08-30T01:43:57;89562.00;;;32.25;19.96
82256;BME280;72145;34.434;-117.370;2023-08-30T01:44:35;89537.13;;;32.03;20.50
82256;BME280;72145;34.434;-117.370;2023-08-30T01:45:10;89568.91;;;32.16;20.08
82256;BME280;72145;34.434;-117.370;2023-08-30T01:45:47;89590.06;;;32.10;20.26
82256;BME280;72145;34.434;-117.370;2023-08-30T01:46:21;89578.34;;;32.17;19.95
82256;BME280;72145;34.434;-117.370;2023-08-30T01:46:56;89576.97;;;32.28;20.46
82256;BME280;72145;34.434;-117.370;2023-08-30T01:47:33;89571.59;;;32.16;20.64
82256;BME280;72145;34.434;-117.370;2023-08-30T01:48:15;89570.97;;;32.06;20.13
82256;BME280;72145;34.434;-117.370;2023-08-30T01:48:52;89587.00;;;32.16;20.23
82256;BME280;72145;34.434;-117.370;2023-08-30T01:49:28;89571.94;;;32.23;20.02
82256;BME280;72145;34.434;-117.370;2023-08-30T01:50:05;89581.06;;;32.17;20.57
82256;BME280;72145;34.434;-117.370;2023-08-30T01:50:41;89581.38;;;32.00;20.42
82256;BME280;72145;34.434;-117.370;2023-08-30T01:51:18;89530.53;;;31.82;20.60
82256;BME280;72145;34.434;-117.370;2023-08-30T01:51:52;89535.09;;;31.80;19.91
82256;BME280;72145;34.434;-117.370;2023-08-30T01:52:26;89573.84;;;31.87;20.75
82256;BME280;72145;34.434;-117.370;2023-08-30T01:53:00;89581.00;;;31.94;20.71
82256;BME280;72145;34.434;-117.370;2023-08-30T01:53:36;89580.06;;;31.89;20.91
82256;BME280;72145;34.434;-117.370;2023-08-30T01:54:10;89576.56;;;31.98;20.38
82256;BME280;72145;34.434;-117.370;2023-08-30T01:54:46;89572.81;;;31.92;20.27
82256;BME280;72145;34.434;-117.370;2023-08-30T01:55:21;89581.06;;;32.06;19.99
82256;BME280;72145;34.434;-117.370;2023-08-30T01:55:55;89580.81;;;32.13;20.47
82256;BME280;72145;34.434;-117.370;2023-08-30T01:56:35;89555.38;;;31.93;20.18
82256;BME280;72145;34.434;-117.370;2023-08-30T01:57:08;89581.44;;;32.24;20.00
82256;BME280;72145;34.434;-117.370;2023-08-30T01:57:42;89539.38;;;32.07;20.12
82256;BME280;72145;34.434;-117.370;2023-08-30T01:58:15;89582.25;;;32.14;20.55
82256;BME280;72145;34.434;-117.370;2023-08-30T01:58:48;89593.16;;;31.95;20.22
82256;BME280;72145;34.434;-117.370;2023-08-30T01:59:22;89583.75;;;32.06;20.13
82256;BME280;72145;34.434;-117.370;2023-08-30T01:59:55;89583.78;;;31.96;20.49
82256;BME280;72145;34.434;-117.370;2023-08-30T02:00:30;89582.13;;;31.79;19.95
82256;BME280;72145;34.434;-117.370;2023-08-30T02:01:06;89578.28;;;31.94;20.66
82256;BME280;72145;34.434;-117.370;2023-08-30T02:01:42;89579.22;;;31.87;20.09
82256;BME280;72145;34.434;-117.370;2023-08-30T02:02:15;89553.00;;;31.75;20.09
82256;BME280;72145;34.434;-117.370;2023-08-30T02:02:51;89571.72;;;31.85;20.58
82256;BME280;72145;34.434;-117.370;2023-08-30T02:03:28;89577.38;;;31.89;20.58
82256;BME280;72145;34.434;-117.370;2023-08-30T02:04:01;89588.78;;;31.78;19.88
82256;BME280;72145;34.434;-117.370;2023-08-30T02:04:34;89572.16;;;31.70;20.16
82256;BME280;72145;34.434;-117.370;2023-08-30T02:05:10;89578.97;;;31.82;19.62
82256;BME280;72145;34.434;-117.370;2023-08-30T02:06:06;89581.91;;;31.87;20.11
82256;BME280;72145;34.434;-117.370;2023-08-30T02:06:48;89587.59;;;31.69;20.33
82256;BME280;72145;34.434;-117.370;2023-08-30T02:07:35;89584.09;;;31.67;20.54
82256;BME280;72145;34.434;-117.370;2023-08-30T02:08:14;89589.25;;;31.74;19.93
82256;BME280;72145;34.434;-117.370;2023-08-30T02:09:40;89587.47;;;31.67;20.34
82256;BME280;72145;34.434;-117.370;2023-08-30T02:10:21;89581.97;;;31.65;19.76
82256;BME280;72145;34.434;-117.370;2023-08-30T02:10:58;89586.41;;;31.60;19.97
82256;BME280;72145;34.434;-117.370;2023-08-30T02:11:34;89584.78;;;31.67;20.16
82256;BME280;72145;34.434;-117.370;2023-08-30T02:12:13;89580.06;;;31.56;20.40
82256;BME280;72145;34.434;-117.370;2023-08-30T02:12:49;89587.63;;;31.48;20.77
82256;BME280;72145;34.434;-117.370;2023-08-30T02:13:26;89575.31;;;31.44;20.70
82256;BME280;72145;34.434;-117.370;2023-08-30T02:14:05;89476.41;;;30.88;20.16
82256;BME280;72145;34.434;-117.370;2023-08-30T02:14:47;89572.34;;;31.50;20.76
82256;BME280;72145;34.434;-117.370;2023-08-30T02:15:24;89564.69;;;31.47;20.28
82256;BME280;72145;34.434;-117.370;2023-08-30T02:16:01;89591.56;;;31.68;20.09
82256;BME280;72145;34.434;-117.370;2023-08-30T02:16:37;89561.00;;;31.52;20.90
82256;BME280;72145;34.434;-117.370;2023-08-30T02:17:14;89588.50;;;31.62;20.23
82256;BME280;72145;34.434;-117.370;2023-08-30T02:17:51;89569.75;;;31.52;20.31
82256;BME280;72145;34.434;-117.370;2023-08-30T02:18:25;89596.31;;;31.58;20.58
82256;BME280;72145;34.434;-117.370;2023-08-30T02:19:00;89593.50;;;31.56;20.62
82256;BME280;72145;34.434;-117.370;2023-08-30T02:19:34;89593.63;;;31.58;20.76
82256;BME280;72145;34.434;-117.370;2023-08-30T02:20:07;89570.34;;;31.29;20.79
82256;BME280;72145;34.434;-117.370;2023-08-30T02:20:41;89504.41;;;30.95;21.32
82256;BME280;72145;34.434;-117.370;2023-08-30T02:21:14;89583.09;;;31.29;21.25
82256;BME280;72145;34.434;-117.370;2023-08-30T02:21:48;89595.97;;;31.52;20.62
82256;BME280;72145;34.434;-117.370;2023-08-30T02:22:23;89594.16;;;31.44;20.89
82256;BME280;72145;34.434;-117.370;2023-08-30T02:22:59;89597.16;;;31.39;20.79
82256;BME280;72145;34.434;-117.370;2023-08-30T02:23:50;89562.56;;;31.12;20.94
82256;BME280;72145;34.434;-117.370;2023-08-30T02:24:26;89589.34;;;31.43;21.12
82256;BME280;72145;34.434;-117.370;2023-08-30T02:24:59;89593.75;;;31.38;20.91
82256;BME280;72145;34.434;-117.370;2023-08-30T02:25:37;89593.47;;;31.44;20.70
82256;BME280;72145;34.434;-117.370;2023-08-30T02:26:10;89587.63;;;31.48;21.31
82256;BME280;72145;34.434;-117.370;2023-08-30T02:26:44;89586.59;;;31.31;20.92
82256;BME280;72145;34.434;-117.370;2023-08-30T02:27:17;89586.53;;;31.41;20.83
82256;BME280;72145;34.434;-117.370;2023-08-30T02:27:53;89589.03;;;31.27;21.80
82256;BME280;72145;34.434;-117.370;2023-08-30T02:28:26;89594.03;;;31.21;21.36
82256;BME280;72145;34.434;-117.370;2023-08-30T02:29:00;89596.16;;;31.22;21.70
82256;BME280;72145;34.434;-117.370;2023-08-30T02:29:36;89593.72;;;31.27;21.30
82256;BME280;72145;34.434;-117.370;2023-08-30T02:30:09;89596.91;;;31.13;21.45
82256;BME280;72145;34.434;-117.370;2023-08-30T02:30:42;89575.56;;;30.94;21.54
82256;BME280;72145;34.434;-117.370;2023-08-30T02:31:16;89599.59;;;31.13;21.47
82256;BME280;72145;34.434;-117.370;2023-08-30T02:31:49;89598.78;;;31.11;21.63
82256;BME280;72145;34.434;-117.370;2023-08-30T02:32:22;89600.31;;;30.92;21.59
82256;BME280;72145;34.434;-117.370;2023-08-30T02:33:02;89597.63;;;30.92;22.15
82256;BME280;72145;34.434;-117.370;2023-08-30T02:33:35;89604.00;;;30.87;22.12
82256;BME280;72145;34.434;-117.370;2023-08-30T02:34:10;89601.44;;;30.89;21.96
82256;BME280;72145;34.434;-117.370;2023-08-30T02:34:43;89597.19;;;30.86;21.78
82256;BME280;72145;34.434;-117.370;2023-08-30T02:35:16;89592.38;;;30.94;21.94
82256;BME280;72145;34.434;-117.370;2023-08-30T02:35:49;89593.44;;;30.79;22.26
82256;BME280;72145;34.434;-117.370;2023-08-30T02:36:22;89592.69;;;30.57;22.04
82256;BME280;72145;34.434;-117.370;2023-08-30T02:36:55;89600.19;;;30.80;22.30
82256;BME280;72145;34.434;-117.370;2023-08-30T02:37:29;89594.03;;;30.68;21.96
82256;BME280;72145;34.434;-117.370;2023-08-30T02:38:02;89605.22;;;30.64;22.22
82256;BME280;72145;34.434;-117.370;2023-08-30T02:38:38;89571.28;;;30.38;22.00
82256;BME280;72145;34.434;-117.370;2023-08-30T02:39:14;89603.31;;;30.77;21.81
82256;BME280;72145;34.434;-117.370;2023-08-30T02:39:52;89605.50;;;30.68;21.66
82256;BME280;72145;34.434;-117.370;2023-08-30T02:40:25;89615.09;;;30.72;22.09
82256;BME280;72145;34.434;-117.370;2023-08-30T02:40:58;89607.88;;;30.74;22.02
82256;BME280;72145;34.434;-117.370;2023-08-30T02:41:32;89609.06;;;30.61;22.11
82256;BME280;72145;34.434;-117.370;2023-08-30T02:42:05;89614.28;;;30.59;22.24
82256;BME280;72145;34.434;-117.370;2023-08-30T02:42:38;89593.44;;;30.48;21.97
82256;BME280;72145;34.434;-117.370;2023-08-30T02:43:11;89601.50;;;30.79;22.14
82256;BME280;72145;34.434;-117.370;2023-08-30T02:43:44;89612.09;;;30.77;22.10
82256;BME280;72145;34.434;-117.370;2023-08-30T02:44:18;89610.72;;;30.66;22.01
82256;BME280;72145;34.434;-117.370;2023-08-30T02:44:51;89612.91;;;30.58;22.25
82256;BME280;72145;34.434;-117.370;2023-08-30T02:45:24;89618.56;;;30.53;21.85
82256;BME280;72145;34.434;-117.370;2023-08-30T02:45:57;89613.03;;;30.60;21.69
82256;BME280;72145;34.434;-117.370;2023-08-30T02:46:31;89615.75;;;30.51;21.94
82256;BME280;72145;34.434;-117.370;2023-08-30T02:47:04;89606.78;;;30.36;22.35
82256;BME280;72145;34.434;-117.370;2023-08-30T02:47:40;89613.22;;;30.43;21.92
82256;BME280;72145;34.434;-117.370;2023-08-30T02:48:14;89615.03;;;30.50;22.05
82256;BME280;72145;34.434;-117.370;2023-08-30T02:48:48;89598.28;;;30.30;22.15
82256;BME280;72145;34.434;-117.370;2023-08-30T02:49:21;89611.56;;;30.38;22.29
82256;BME280;72145;34.434;-117.370;2023-08-30T02:49:54;89616.22;;;30.37;21.85
82256;BME280;72145;34.434;-117.370;2023-08-30T02:50:27;89614.25;;;30.28;22.49
82256;BME280;72145;34.434;-117.370;2023-08-30T02:51:00;89613.28;;;30.23;22.27
82256;BME280;72145;34.434;-117.370;2023-08-30T02:51:34;89613.56;;;30.27;22.09
82256;BME280;72145;34.434;-117.370;2023-08-30T02:52:07;89611.44;;;30.26;22.08
82256;BME280;72145;34.434;-117.370;2023-08-30T02:52:41;89614.94;;;30.28;22.53
82256;BME280;72145;34.434;-117.370;2023-08-30T02:53:14;89582.13;;;29.99;22.48
82256;BME280;72145;34.434;-117.370;2023-08-30T02:53:47;89617.34;;;30.34;22.41
82256;BME280;72145;34.434;-117.370;2023-08-30T02:54:22;89623.56;;;30.27;22.03
82256;BME280;72145;34.434;-117.370;2023-08-30T02:54:55;89613.97;;;30.34;22.17
82256;BME280;72145;34.434;-117.370;2023-08-30T02:55:28;89618.50;;;30.21;22.32
82256;BME280;72145;34.434;-117.370;2023-08-30T02:56:01;89618.50;;;30.21;22.17
82256;BME280;72145;34.434;-117.370;2023-08-30T02:56:34;89608.50;;;30.12;22.36
82256;BME280;72145;34.434;-117.370;2023-08-30T02:57:08;89617.41;;;30.15;22.16
82256;BME280;72145;34.434;-117.370;2023-08-30T02:57:41;89590.44;;;30.03;22.38
82256;BME280;72145;34.434;-117.370;2023-08-30T02:58:14;89602.31;;;30.00;22.02
82256;BME280;72145;34.434;-117.370;2023-08-30T02:58:47;89586.97;;;29.81;22.25
82256;BME280;72145;34.434;-117.370;2023-08-30T02:59:21;89586.25;;;29.70;22.68
82256;BME280;72145;34.434;-117.370;2023-08-30T02:59:54;89620.81;;;30.05;22.31
82256;BME280;72145;34.434;-117.370;2023-08-30T03:00:32;89614.44;;;30.10;22.32
82256;BME280;72145;34.434;-117.370;2023-08-30T03:01:07;89617.16;;;30.01;22.56
82256;BME280;72145;34.434;-117.370;2023-08-30T03:01:40;89620.81;;;30.05;22.53
82256;BME280;72145;34.434;-117.370;2023-08-30T03:02:13;89630.44;;;29.99;22.54
82256;BME280;72145;34.434;-117.370;2023-08-30T03:02:47;89624.06;;;29.94;22.72
82256;BME280;72145;34.434;-117.370;2023-08-30T03:03:21;89635.25;;;29.90;22.62
82256;BME280;72145;34.434;-117.370;2023-08-30T03:03:57;89624.94;;;29.97;22.52
82256;BME280;72145;34.434;-117.370;2023-08-30T03:04:33;89621.69;;;29.98;22.58
82256;BME280;72145;34.434;-117.370;2023-08-30T03:05:07;89621.25;;;30.02;22.65
82256;BME280;72145;34.434;-117.370;2023-08-30T03:05:40;89619.88;;;29.91;22.71
82256;BME280;72145;34.434;-117.370;2023-08-30T03:06:13;89627.19;;;29.90;22.51
82256;BME280;72145;34.434;-117.370;2023-08-30T03:06:51;89606.31;;;29.79;22.82
82256;BME280;72145;34.434;-117.370;2023-08-30T03:07:24;89582.75;;;29.68;22.72
82256;BME280;72145;34.434;-117.370;2023-08-30T03:07:57;89625.47;;;30.05;22.71
82256;BME280;72145;34.434;-117.370;2023-08-30T03:08:31;89625.16;;;30.10;22.74